createdAt,value
2018-06-13T00:04:51.998Z,15.40
2018-06-13T00:07:24.038Z,15.50
2018-06-13T00:12:21.751Z,15.40
2018-06-13T00:17:52.323Z,15.40
2018-06-13T00:20:20.973Z,15.50
2018-06-13T00:22:49.575Z,15.40
2018-06-13T00:25:23.456Z,15.40
2018-06-13T00:28:21.008Z,15.30
2018-06-13T00:30:59.149Z,15.30
2018-06-13T00:38:52.991Z,15.30
2018-06-13T00:44:13.981Z,15.20
2018-06-13T00:46:46.130Z,15.20
2018-06-13T00:49:14.466Z,15.20
2018-06-13T00:54:35.703Z,15.20
2018-06-13T00:57:25.161Z,15.10
2018-06-13T01:02:46.424Z,15.10
2018-06-13T01:05:25.383Z,15.10
2018-06-13T01:10:46.659Z,15.20
2018-06-13T01:16:22.432Z,15.10
2018-06-13T01:18:58.313Z,15.00
2018-06-13T01:21:26.892Z,15.10
2018-06-13T01:23:55.407Z,15.10
2018-06-13T01:31:30.369Z,14.90
2018-06-13T01:34:04.025Z,14.90
2018-06-13T01:36:38.240Z,14.80
2018-06-13T01:39:24.750Z,14.70
2018-06-13T01:41:58.954Z,14.60
2018-06-13T01:44:27.375Z,14.60
2018-06-13T01:46:55.882Z,14.40
2018-06-13T01:49:31.505Z,14.40
2018-06-13T01:52:23.148Z,14.30
2018-06-13T01:57:23.361Z,14.30
2018-06-13T02:02:21.625Z,14.20
2018-06-13T02:10:05.797Z,14.10
2018-06-13T02:15:32.088Z,13.90
2018-06-13T02:18:00.449Z,13.80
2018-06-13T02:24:20.637Z,13.60
2018-06-13T02:26:54.441Z,13.60
2018-06-13T02:31:54.939Z,13.60
2018-06-13T02:34:37.907Z,13.70
2018-06-13T02:42:03.012Z,13.80
2018-06-13T02:44:31.431Z,13.70
2018-06-13T02:47:03.943Z,13.70
2018-06-13T02:49:32.305Z,13.70
2018-06-13T02:52:17.061Z,13.80
2018-06-13T02:54:45.472Z,13.80
2018-06-13T02:57:13.828Z,13.80
2018-06-13T02:59:42.198Z,13.80
2018-06-13T03:05:06.709Z,13.70
2018-06-13T03:07:35.069Z,13.70
2018-06-13T03:10:03.427Z,13.80
2018-06-13T03:12:33.297Z,13.80
2018-06-13T03:15:01.879Z,13.70
2018-06-13T03:17:30.246Z,13.70
2018-06-13T03:19:58.682Z,13.70
2018-06-13T03:25:53.026Z,13.60
2018-06-13T03:28:22.403Z,13.60
2018-06-13T03:30:52.077Z,13.70
2018-06-13T03:51:24.417Z,13.60
2018-06-13T03:53:53.454Z,13.60
2018-06-13T03:56:21.926Z,13.60
2018-06-13T03:59:06.902Z,13.70
2018-06-13T04:04:30.861Z,13.70
2018-06-13T04:07:18.247Z,13.60
2018-06-13T04:09:54.014Z,13.70
2018-06-13T04:15:22.781Z,13.70
2018-06-13T04:23:53.547Z,13.70
2018-06-13T04:26:23.353Z,13.70
2018-06-13T04:28:51.763Z,13.70
2018-06-13T04:31:24.934Z,13.70
2018-06-13T04:33:55.473Z,13.70
2018-06-13T04:36:29.105Z,13.70
2018-06-13T04:38:57.430Z,13.70
2018-06-13T04:41:25.630Z,13.70
2018-06-13T04:43:53.873Z,13.70
2018-06-13T04:49:18.945Z,13.90
2018-06-13T04:51:47.463Z,13.90
2018-06-13T04:54:16.573Z,13.90
2018-06-13T04:56:44.917Z,13.90
2018-06-13T04:59:13.667Z,13.80
2018-06-13T05:01:41.926Z,13.90
2018-06-13T05:09:07.509Z,14.00
2018-06-13T05:11:35.985Z,14.00
2018-06-13T05:14:05.065Z,14.00
2018-06-13T05:16:38.124Z,14.10
2018-06-13T05:19:06.514Z,14.00
2018-06-13T05:21:34.827Z,14.00
2018-06-13T05:24:21.281Z,14.20
2018-06-13T05:26:51.608Z,14.30
2018-06-13T05:29:20.371Z,14.10
2018-06-13T05:31:48.689Z,14.30
2018-06-13T05:36:45.029Z,14.40
2018-06-13T05:39:13.385Z,14.50
2018-06-13T05:41:42.062Z,14.50
2018-06-13T05:44:22.914Z,14.50
2018-06-13T05:46:51.252Z,14.50
2018-06-13T05:49:22.317Z,14.70
2018-06-13T05:51:56.420Z,14.50
2018-06-13T05:54:24.877Z,14.60
2018-06-13T05:56:53.103Z,14.80
2018-06-13T05:59:24.339Z,15.00
2018-06-13T06:01:52.788Z,15.10
2018-06-13T06:04:21.083Z,15.20
2018-06-13T06:06:52.347Z,15.40
2018-06-13T06:09:20.804Z,15.40
2018-06-13T06:11:49.006Z,15.20
2018-06-13T06:14:17.265Z,15.30
2018-06-13T06:16:45.718Z,15.40
2018-06-13T06:19:13.955Z,15.60
2018-06-13T06:21:42.234Z,15.70
2018-06-13T06:24:10.507Z,15.90
2018-06-13T06:26:38.728Z,15.80
2018-06-13T06:34:03.186Z,15.30
2018-06-13T06:36:31.409Z,15.40
2018-06-13T06:39:00.709Z,15.40
2018-06-13T06:43:57.201Z,15.10
2018-06-13T06:46:25.437Z,15.00
2018-06-13T06:48:53.941Z,15.00
2018-06-13T06:51:22.278Z,15.00
2018-06-13T06:53:50.599Z,15.00
2018-06-13T06:56:19.270Z,14.90
2018-06-13T06:58:47.910Z,15.00
2018-06-13T07:01:16.185Z,15.10
2018-06-13T07:03:44.785Z,15.10
2018-06-13T07:06:14.079Z,15.20
2018-06-13T07:11:10.734Z,15.60
2018-06-13T07:13:38.961Z,15.50
2018-06-13T07:18:35.205Z,15.70
2018-06-13T07:21:03.750Z,15.70
2018-06-13T07:23:32.730Z,15.70
2018-06-13T07:26:01.084Z,15.60
2018-06-13T07:28:29.946Z,15.40
2018-06-13T07:30:58.157Z,15.50
2018-06-13T07:33:26.421Z,15.70
2018-06-13T07:35:54.761Z,16.00
2018-06-13T07:40:51.577Z,16.30
2018-06-13T07:45:48.910Z,16.80
2018-06-13T07:48:17.123Z,16.80
2018-06-13T07:50:45.381Z,16.40
2018-06-13T07:53:13.643Z,16.10
2018-06-13T07:55:42.085Z,15.80
2018-06-13T07:58:10.553Z,15.80
2018-06-13T08:00:39.101Z,15.80
2018-06-13T08:03:07.307Z,15.70
2018-06-13T08:05:35.981Z,15.70
2018-06-13T08:08:04.232Z,15.80
2018-06-13T08:13:01.625Z,15.80
2018-06-13T08:15:29.884Z,15.80
2018-06-13T08:17:58.438Z,15.90
2018-06-13T08:20:26.935Z,15.90
2018-06-13T08:25:23.425Z,16.10
2018-06-13T08:27:51.678Z,16.00
2018-06-13T08:30:19.969Z,16.20
2018-06-13T08:40:12.495Z,16.40
2018-06-13T08:42:40.961Z,16.20
2018-06-13T08:45:09.390Z,16.00
2018-06-13T08:47:37.798Z,16.20
2018-06-13T08:55:08.637Z,16.10
2018-06-13T08:57:37.473Z,16.10
2018-06-13T09:02:34.064Z,16.00
2018-06-13T09:05:03.299Z,16.10
2018-06-13T09:07:31.476Z,16.00
2018-06-13T09:10:00.118Z,16.10
2018-06-13T09:12:28.397Z,15.90
2018-06-13T09:14:56.648Z,15.90
2018-06-13T09:17:25.411Z,15.90
2018-06-13T09:19:53.649Z,15.90
2018-06-13T09:22:21.945Z,15.70
2018-06-13T09:24:50.093Z,15.90
2018-06-13T09:27:18.257Z,15.80
2018-06-13T09:29:46.533Z,15.80
2018-06-13T09:32:14.759Z,15.80
2018-06-13T09:34:42.997Z,15.70
2018-06-13T09:37:11.602Z,15.70
2018-06-13T09:39:39.998Z,15.60
2018-06-13T09:42:08.431Z,15.70
2018-06-13T09:44:36.900Z,15.60
2018-06-13T09:47:06.904Z,15.70
2018-06-13T09:49:34.361Z,15.80
2018-06-13T09:54:31.260Z,15.70
2018-06-13T09:56:59.789Z,15.80
2018-06-13T09:59:33.312Z,15.80
2018-06-13T10:02:06.962Z,15.90
2018-06-13T10:04:35.224Z,15.90
2018-06-13T10:07:03.807Z,16.00
2018-06-13T10:09:32.031Z,16.10
2018-06-13T10:12:03.778Z,16.20
2018-06-13T10:14:32.008Z,16.40
2018-06-13T10:17:00.254Z,16.30
2018-06-13T10:19:29.225Z,16.50
2018-06-13T10:21:57.486Z,16.60
2018-06-13T10:24:25.970Z,16.60
2018-06-13T10:29:22.736Z,16.80
2018-06-13T10:31:50.953Z,17.00
2018-06-13T10:36:47.358Z,17.00
2018-06-13T10:41:43.540Z,16.60
2018-06-13T10:46:40.412Z,16.50
2018-06-13T10:49:08.663Z,16.50
2018-06-13T10:51:36.963Z,16.60
2018-06-13T10:54:05.351Z,16.40
2018-06-13T10:56:33.728Z,16.40
2018-06-13T11:01:30.273Z,16.50
2018-06-13T11:03:58.541Z,16.80
2018-06-13T11:06:27.274Z,16.60
2018-06-13T11:08:55.500Z,16.50
2018-06-13T11:11:23.660Z,16.60
2018-06-13T11:13:51.854Z,16.60
2018-06-13T11:16:20.194Z,16.70
2018-06-13T11:18:48.408Z,16.80
2018-06-13T11:23:44.550Z,16.80
2018-06-13T11:28:40.729Z,17.20
2018-06-13T11:31:08.951Z,17.10
2018-06-13T11:33:37.209Z,16.90
2018-06-13T11:36:05.560Z,17.20
2018-06-13T11:38:36.909Z,17.20
2018-06-13T11:43:33.088Z,17.20
2018-06-13T11:46:01.326Z,17.40
2018-06-13T11:50:58.186Z,17.00
2018-06-13T11:55:54.838Z,16.40
2018-06-13T11:58:23.621Z,16.30
2018-06-13T12:03:20.139Z,16.40
2018-06-13T12:05:48.645Z,16.60
2018-06-13T12:08:17.226Z,16.60
2018-06-13T12:10:45.996Z,16.90
2018-06-13T12:13:15.248Z,17.10
2018-06-13T12:15:44.674Z,16.80
2018-06-13T12:20:42.101Z,16.80
2018-06-13T12:23:10.750Z,16.70
2018-06-13T12:25:39.329Z,16.90
2018-06-13T12:29:10.046Z,17.00
2018-06-13T12:31:38.441Z,16.60
2018-06-13T12:34:06.681Z,16.80
2018-06-13T12:39:03.413Z,16.70
2018-06-13T12:46:28.197Z,16.80
2018-06-13T12:48:56.886Z,16.70
2018-06-13T12:51:25.181Z,16.70
2018-06-13T12:53:53.658Z,16.70
2018-06-13T12:56:21.874Z,16.60
2018-06-13T12:58:50.114Z,16.60
2018-06-13T13:03:46.643Z,16.70
2018-06-13T13:06:14.917Z,16.70
2018-06-13T13:08:43.732Z,16.90
2018-06-13T13:13:43.499Z,16.90
2018-06-13T13:16:11.717Z,17.20
2018-06-13T13:18:40.279Z,17.40
2018-06-13T13:21:08.529Z,17.10
2018-06-13T13:23:37.629Z,17.20
2018-06-13T13:26:06.145Z,17.50
2018-06-13T13:28:34.472Z,17.40
2018-06-13T13:31:02.993Z,17.80
2018-06-13T13:33:31.251Z,17.80
2018-06-13T13:35:59.500Z,17.70
2018-06-13T13:38:27.957Z,17.40
2018-06-13T13:40:56.613Z,17.80
2018-06-13T13:43:24.884Z,17.90
2018-06-13T13:45:53.440Z,18.00
2018-06-13T13:48:21.830Z,18.20
2018-06-13T13:50:50.072Z,18.40
2018-06-13T13:55:46.659Z,18.20
2018-06-13T13:58:15.142Z,18.30
2018-06-13T14:00:43.434Z,19.10
2018-06-13T14:03:11.919Z,19.50
2018-06-13T14:05:40.155Z,20.40
2018-06-13T14:08:08.421Z,20.40
2018-06-13T14:10:37.671Z,21.00
2018-06-13T14:15:34.477Z,20.90
2018-06-13T14:18:02.925Z,21.90
2018-06-13T14:20:31.282Z,20.80
2018-06-13T14:23:00.182Z,20.80
2018-06-13T14:25:29.517Z,21.30
2018-06-13T14:27:57.752Z,20.70
2018-06-13T14:30:26.331Z,20.50
2018-06-13T14:32:54.585Z,19.60
2018-06-13T14:35:22.839Z,19.20
2018-06-13T14:37:51.256Z,18.70
2018-06-13T14:40:19.808Z,18.70
2018-06-13T14:42:48.333Z,18.40
2018-06-13T14:45:16.800Z,18.50
2018-06-13T14:47:45.189Z,18.50
2018-06-13T14:50:13.563Z,18.40
2018-06-13T14:52:41.937Z,18.40
2018-06-13T14:55:10.272Z,18.60
2018-06-13T14:57:38.802Z,18.60
2018-06-13T15:00:07.076Z,18.60
2018-06-13T15:02:35.781Z,18.90
2018-06-13T15:05:04.157Z,19.00
2018-06-13T15:07:32.353Z,19.00
2018-06-13T15:12:28.844Z,19.70
2018-06-13T15:14:57.059Z,20.20
2018-06-13T15:17:25.528Z,20.70
2018-06-13T15:19:53.777Z,20.40
2018-06-13T15:22:22.230Z,21.60
2018-06-13T15:24:51.076Z,22.10
2018-06-13T15:27:19.293Z,22.50
2018-06-13T15:29:47.514Z,21.90
2018-06-13T15:32:15.742Z,20.60
2018-06-13T15:34:44.413Z,20.10
2018-06-13T15:37:12.924Z,20.40
2018-06-13T15:42:11.948Z,19.60
2018-06-13T15:44:40.369Z,19.80
2018-06-13T15:47:08.759Z,19.70
2018-06-13T15:49:37.765Z,19.50
2018-06-13T15:54:36.284Z,18.80
2018-06-13T15:59:33.061Z,18.70
2018-06-13T16:02:01.277Z,18.80
2018-06-13T16:04:29.573Z,18.90
2018-06-13T16:06:57.837Z,18.80
2018-06-13T16:09:26.482Z,18.80
2018-06-13T16:11:55.058Z,18.60
2018-06-13T16:14:23.811Z,18.50
2018-06-13T16:16:55.202Z,18.70
2018-06-13T16:21:52.400Z,18.50
2018-06-13T16:24:21.155Z,18.30
2018-06-13T16:26:49.475Z,18.30
2018-06-13T16:29:17.745Z,18.20
2018-06-13T16:31:46.365Z,18.00
2018-06-13T16:34:15.705Z,17.90
2018-06-13T16:39:12.206Z,17.80
2018-06-13T16:41:40.846Z,17.80
2018-06-13T16:44:09.100Z,17.80
2018-06-13T16:46:37.790Z,17.90
2018-06-13T16:54:13.268Z,17.90
2018-06-13T16:56:42.206Z,18.00
2018-06-13T17:01:39.570Z,18.20
2018-06-13T17:04:07.810Z,18.70
2018-06-13T17:06:36.062Z,19.60
2018-06-13T17:09:06.690Z,19.50
2018-06-13T17:14:03.201Z,18.70
2018-06-13T17:16:31.693Z,18.50
2018-06-13T17:19:00.070Z,18.50
2018-06-13T17:21:28.292Z,18.40
2018-06-13T17:23:56.551Z,18.30
2018-06-13T17:26:25.036Z,18.30
2018-06-13T17:31:21.437Z,18.20
2018-06-13T17:33:49.622Z,18.20
2018-06-13T17:41:14.637Z,17.80
2018-06-13T17:43:43.253Z,17.80
2018-06-13T17:46:11.546Z,17.80
2018-06-13T17:48:39.980Z,17.70
2018-06-13T17:51:08.457Z,17.70
2018-06-13T17:56:05.052Z,17.70
2018-06-13T17:58:36.237Z,17.80
2018-06-13T18:03:32.467Z,17.90
2018-06-13T18:06:00.744Z,17.80
2018-06-13T18:08:29.166Z,17.80
2018-06-13T18:10:57.410Z,17.80
2018-06-13T18:13:25.705Z,17.60
2018-06-13T18:15:53.960Z,17.60
2018-06-13T18:18:22.195Z,17.60
2018-06-13T18:20:50.401Z,17.50
2018-06-13T18:23:19.412Z,17.50
2018-06-13T18:25:47.681Z,17.40
2018-06-13T18:28:15.895Z,17.40
2018-06-13T18:30:44.224Z,17.40
2018-06-13T18:33:12.625Z,17.30
2018-06-13T18:35:40.940Z,17.40
2018-06-13T18:38:09.164Z,17.50
2018-06-13T18:40:37.565Z,17.40
2018-06-13T18:43:05.928Z,17.40
2018-06-13T18:45:34.169Z,17.40
2018-06-13T18:48:02.405Z,17.40
2018-06-13T18:50:30.606Z,17.30
2018-06-13T18:52:58.803Z,17.20
2018-06-13T18:55:27.002Z,17.20
2018-06-13T18:57:55.288Z,17.10
2018-06-13T19:00:23.506Z,17.10
2018-06-13T19:02:51.704Z,17.00
2018-06-13T19:05:20.093Z,16.80
2018-06-13T19:07:48.407Z,16.80
2018-06-13T19:10:16.682Z,16.70
2018-06-13T19:12:44.915Z,16.60
2018-06-13T19:17:41.215Z,16.40
2018-06-13T19:20:09.597Z,16.30
2018-06-13T19:25:06.213Z,16.00
2018-06-13T19:27:34.655Z,15.80
2018-06-13T19:32:30.989Z,15.70
2018-06-13T19:34:59.230Z,15.70
2018-06-13T19:37:27.478Z,15.50
2018-06-13T19:39:55.728Z,15.40
2018-06-13T19:42:24.033Z,15.20
2018-06-13T19:47:25.757Z,14.80
2018-06-13T19:55:09.748Z,14.20
2018-06-13T19:57:37.964Z,14.20
2018-06-13T20:00:06.455Z,14.20
2018-06-13T20:05:13.578Z,14.00
2018-06-13T20:07:41.781Z,13.90
2018-06-13T20:12:43.508Z,13.80
2018-06-13T20:17:51.115Z,13.90
2018-06-13T20:22:47.970Z,13.60
2018-06-13T20:25:22.183Z,13.50
2018-06-13T20:30:29.308Z,13.40
2018-06-13T20:32:57.549Z,13.40
2018-06-13T20:35:26.165Z,13.20
2018-06-13T20:40:22.507Z,13.00
2018-06-13T20:42:51.774Z,13.00
2018-06-13T20:45:20.005Z,13.00
2018-06-13T20:47:48.859Z,13.00
2018-06-13T20:50:17.321Z,13.00
2018-06-13T20:52:45.526Z,12.90
2018-06-13T20:57:42.334Z,12.60
2018-06-13T21:02:38.562Z,12.70
2018-06-13T21:05:06.806Z,12.80
2018-06-13T21:07:35.476Z,12.60
2018-06-13T21:10:03.701Z,12.50
2018-06-13T21:12:32.250Z,12.50
2018-06-13T21:17:28.789Z,12.30
2018-06-13T21:19:57.253Z,12.20
2018-06-13T21:22:25.884Z,12.10
2018-06-13T21:24:54.510Z,12.00
2018-06-13T21:27:23.342Z,11.90
2018-06-13T21:29:51.744Z,11.90
2018-06-13T21:32:19.963Z,11.80
2018-06-13T21:34:48.421Z,11.80
2018-06-13T21:37:16.554Z,11.70
2018-06-13T21:39:44.790Z,11.60
2018-06-13T21:42:13.211Z,11.50
2018-06-13T21:44:41.461Z,11.50
2018-06-13T21:47:10.429Z,11.40
2018-06-13T21:49:45.831Z,11.40
2018-06-13T21:52:15.951Z,11.40
2018-06-13T21:54:44.366Z,11.40
2018-06-13T21:57:13.693Z,11.30
2018-06-13T21:59:43.513Z,11.40
2018-06-13T22:02:11.909Z,11.40
2018-06-13T22:04:40.237Z,11.40
2018-06-13T22:07:08.618Z,11.40
2018-06-13T22:09:36.838Z,11.30
2018-06-13T22:12:06.222Z,11.20
2018-06-13T22:14:34.473Z,11.20
2018-06-13T22:21:59.161Z,11.30
2018-06-13T22:24:27.859Z,11.10
2018-06-13T22:29:24.837Z,11.10
2018-06-13T22:31:53.062Z,11.00
2018-06-13T22:39:17.700Z,10.90
2018-06-13T22:51:39.653Z,10.60
2018-06-13T22:56:36.624Z,10.60
2018-06-13T22:59:05.511Z,10.50
2018-06-13T23:01:33.985Z,10.50
2018-06-13T23:04:02.522Z,10.50
2018-06-13T23:08:59.156Z,10.40
2018-06-13T23:11:27.377Z,10.40
2018-06-13T23:18:52.378Z,10.30
2018-06-13T23:21:21.658Z,10.30
2018-06-13T23:23:49.877Z,10.20
2018-06-13T23:26:19.020Z,10.20
2018-06-13T23:28:47.273Z,10.30
2018-06-13T23:31:15.817Z,10.30
2018-06-13T23:46:04.287Z,10.10
2018-06-13T23:48:32.513Z,10.10
2018-06-13T23:51:00.763Z,10.10
